sensor_id;sensor_type;location;lat;lon;timestamp;pressure;altitude;pressure_sealevel;temperature;humidity
29549;BME280;16487;53.094;8.800;2023-04-24T00:01:13;98442.16;;;11.93;100.00
29549;BME280;16487;53.094;8.800;2023-04-24T00:03:40;98435.81;;;11.87;100.00
29549;BME280;16487;53.094;8.800;2023-04-24T00:06:08;98431.75;;;11.93;100.00
29549;BME280;16487;53.094;8.800;2023-04-24T00:08:35;98432.25;;;11.92;100.00
29549;BME280;16487;53.094;8.800;2023-04-24T00:11:04;98419.84;;;11.87;100.00
29549;BME280;16487;53.094;8.800;2023-04-24T00:13:31;98411.22;;;11.91;100.00
29549;BME280;16487;53.094;8.800;2023-04-24T00:15:58;98414.75;;;11.91;100.00
29549;BME280;16487;53.094;8.800;2023-04-24T00:18:26;98415.00;;;11.93;100.00
29549;BME280;16487;53.094;8.800;2023-04-24T00:20:53;98409.41;;;11.99;100.00
29549;BME280;16487;53.094;8.800;2023-04-24T00:23:20;98397.25;;;11.91;100.00
29549;BME280;16487;53.094;8.800;2023-04-24T00:25:48;98403.09;;;11.93;100.00
29549;BME280;16487;53.094;8.800;2023-04-24T00:28:16;98405.38;;;11.89;100.00
29549;BME280;16487;53.094;8.800;2023-04-24T00:30:43;98407.66;;;11.85;100.00
29549;BME280;16487;53.094;8.800;2023-04-24T00:33:11;98402.31;;;11.87;100.00
29549;BME280;16487;53.094;8.800;2023-04-24T00:35:38;98418.28;;;11.86;100.00
29549;BME280;16487;53.094;8.800;2023-04-24T00:38:06;98406.66;;;11.88;100.00
29549;BME280;16487;53.094;8.800;2023-04-24T00:40:33;98406.13;;;11.89;100.00
29549;BME280;16487;53.094;8.800;2023-04-24T00:43:00;98437.84;;;11.92;100.00
29549;BME280;16487;53.094;8.800;2023-04-24T00:45:29;98460.16;;;11.92;100.00
29549;BME280;16487;53.094;8.800;2023-04-24T00:47:57;98511.94;;;11.93;100.00
29549;BME280;16487;53.094;8.800;2023-04-24T00:50:25;98522.59;;;12.00;100.00
29549;BME280;16487;53.094;8.800;2023-04-24T00:52:52;98553.03;;;11.98;100.00
29549;BME280;16487;53.094;8.800;2023-04-24T00:55:20;98598.69;;;11.95;100.00
29549;BME280;16487;53.094;8.800;2023-04-24T00:57:47;98627.13;;;11.88;100.00
29549;BME280;16487;53.094;8.800;2023-04-24T01:00:16;98653.50;;;11.87;100.00
29549;BME280;16487;53.094;8.800;2023-04-24T01:02:45;98686.69;;;11.79;100.00
29549;BME280;16487;53.094;8.800;2023-04-24T01:05:15;98709.28;;;11.76;100.00
29549;BME280;16487;53.094;8.800;2023-04-24T01:07:44;98722.44;;;11.70;100.00
29549;BME280;16487;53.094;8.800;2023-04-24T01:10:13;98731.84;;;11.72;100.00
29549;BME280;16487;53.094;8.800;2023-04-24T01:12:41;98751.59;;;11.69;100.00
29549;BME280;16487;53.094;8.800;2023-04-24T01:15:09;98747.72;;;11.61;100.00
29549;BME280;16487;53.094;8.800;2023-04-24T01:17:37;98741.34;;;11.54;100.00
29549;BME280;16487;53.094;8.800;2023-04-24T01:20:06;98725.56;;;11.46;100.00
29549;BME280;16487;53.094;8.800;2023-04-24T01:22:36;98718.47;;;11.45;100.00
29549;BME280;16487;53.094;8.800;2023-04-24T01:25:04;98705.81;;;11.55;100.00
29549;BME280;16487;53.094;8.800;2023-04-24T01:27:31;98711.44;;;11.61;100.00
29549;BME280;16487;53.094;8.800;2023-04-24T01:29:59;98708.66;;;11.61;100.00
29549;BME280;16487;53.094;8.800;2023-04-24T01:32:27;98710.00;;;11.71;100.00
29549;BME280;16487;53.094;8.800;2023-04-24T01:34:55;98703.16;;;11.72;100.00
29549;BME280;16487;53.094;8.800;2023-04-24T01:37:23;98699.34;;;11.69;100.00
29549;BME280;16487;53.094;8.800;2023-04-24T01:39:51;98695.56;;;11.78;100.00
29549;BME280;16487;53.094;8.800;2023-04-24T01:42:19;98698.13;;;11.76;100.00
29549;BME280;16487;53.094;8.800;2023-04-24T01:44:46;98711.56;;;11.83;100.00
29549;BME280;16487;53.094;8.800;2023-04-24T01:47:14;98744.09;;;11.86;100.00
29549;BME280;16487;53.094;8.800;2023-04-24T01:49:41;98754.97;;;11.84;100.00
29549;BME280;16487;53.094;8.800;2023-04-24T01:52:09;98741.00;;;11.78;100.00
29549;BME280;16487;53.094;8.800;2023-04-24T01:54:36;98751.63;;;11.74;100.00
29549;BME280;16487;53.094;8.800;2023-04-24T01:57:05;98750.59;;;11.72;100.00
29549;BME280;16487;53.094;8.800;2023-04-24T01:59:33;98756.97;;;11.78;100.00
29549;BME280;16487;53.094;8.800;2023-04-24T02:02:01;98762.03;;;11.79;100.00
29549;BME280;16487;53.094;8.800;2023-04-24T02:04:29;98760.78;;;11.80;100.00
29549;BME280;16487;53.094;8.800;2023-04-24T02:06:57;98765.34;;;11.78;100.00
29549;BME280;16487;53.094;8.800;2023-04-24T02:09:24;98778.81;;;11.85;100.00
29549;BME280;16487;53.094;8.800;2023-04-24T02:11:51;98784.13;;;11.83;100.00
29549;BME280;16487;53.094;8.800;2023-04-24T02:14:20;98764.59;;;11.83;100.00
29549;BME280;16487;53.094;8.800;2023-04-24T02:16:47;98767.16;;;11.81;100.00
29549;BME280;16487;53.094;8.800;2023-04-24T02:19:14;98755.97;;;11.81;100.00
29549;BME280;16487;53.094;8.800;2023-04-24T02:21:42;98763.31;;;11.78;100.00
29549;BME280;16487;53.094;8.800;2023-04-24T02:24:10;98744.81;;;11.81;100.00
29549;BME280;16487;53.094;8.800;2023-04-24T02:26:37;98754.16;;;11.78;100.00
29549;BME280;16487;53.094;8.800;2023-04-24T02:29:04;98752.94;;;11.79;100.00
29549;BME280;16487;53.094;8.800;2023-04-24T02:31:33;98755.72;;;11.79;100.00
29549;BME280;16487;53.094;8.800;2023-04-24T02:34:01;98751.84;;;11.71;100.00
29549;BME280;16487;53.094;8.800;2023-04-24T02:36:28;98730.97;;;11.61;100.00
29549;BME280;16487;53.094;8.800;2023-04-24T02:38:55;98722.28;;;11.47;100.00
29549;BME280;16487;53.094;8.800;2023-04-24T02:41:22;98680.94;;;11.46;100.00
29549;BME280;16487;53.094;8.800;2023-04-24T02:43:50;98677.34;;;11.40;100.00
29549;BME280;16487;53.094;8.800;2023-04-24T02:46:17;98658.06;;;11.36;100.00
29549;BME280;16487;53.094;8.800;2023-04-24T02:48:46;98645.66;;;11.37;100.00
29549;BME280;16487;53.094;8.800;2023-04-24T02:51:14;98629.41;;;11.30;100.00
29549;BME280;16487;53.094;8.800;2023-04-24T02:53:41;98607.84;;;11.31;100.00
29549;BME280;16487;53.094;8.800;2023-04-24T02:56:08;98601.53;;;11.30;100.00
29549;BME280;16487;53.094;8.800;2023-04-24T02:58:36;98586.28;;;11.26;100.00
29549;BME280;16487;53.094;8.800;2023-04-24T03:01:03;98591.88;;;11.31;100.00
29549;BME280;16487;53.094;8.800;2023-04-24T03:03:32;98596.69;;;11.31;100.00
29549;BME280;16487;53.094;8.800;2023-04-24T03:06:00;98594.66;;;11.31;100.00
29549;BME280;16487;53.094;8.800;2023-04-24T03:08:28;98595.72;;;11.34;100.00
29549;BME280;16487;53.094;8.800;2023-04-24T03:10:55;98598.22;;;11.32;100.00
29549;BME280;16487;53.094;8.800;2023-04-24T03:13:22;98607.59;;;11.34;100.00
29549;BME280;16487;53.094;8.800;2023-04-24T03:15:50;98620.06;;;11.39;100.00
29549;BME280;16487;53.094;8.800;2023-04-24T03:18:18;98621.84;;;11.42;100.00
29549;BME280;16487;53.094;8.800;2023-04-24T03:20:47;98633.78;;;11.42;100.00
29549;BME280;16487;53.094;8.800;2023-04-24T03:23:16;98630.47;;;11.44;100.00
29549;BME280;16487;53.094;8.800;2023-04-24T03:25:43;98647.47;;;11.46;100.00
29549;BME280;16487;53.094;8.800;2023-04-24T03:28:12;98650.03;;;11.49;100.00
29549;BME280;16487;53.094;8.800;2023-04-24T03:30:43;98667.00;;;11.51;100.00
29549;BME280;16487;53.094;8.800;2023-04-24T03:33:11;98679.16;;;11.48;100.00
29549;BME280;16487;53.094;8.800;2023-04-24T03:35:46;98681.97;;;11.48;100.00
29549;BME280;16487;53.094;8.800;2023-04-24T03:38:13;98699.97;;;11.47;100.00
29549;BME280;16487;53.094;8.800;2023-04-24T03:40:44;98687.03;;;11.50;100.00
29549;BME280;16487;53.094;8.800;2023-04-24T03:43:26;98698.19;;;11.50;100.00
29549;BME280;16487;53.094;8.800;2023-04-24T03:45:55;98706.78;;;11.46;100.00
29549;BME280;16487;53.094;8.800;2023-04-24T03:48:22;98711.63;;;11.51;100.00
29549;BME280;16487;53.094;8.800;2023-04-24T03:50:50;98734.50;;;11.55;100.00
29549;BME280;16487;53.094;8.800;2023-04-24T03:53:17;98760.88;;;11.54;100.00
29549;BME280;16487;53.094;8.800;2023-04-24T03:55:46;98771.03;;;11.57;100.00
29549;BME280;16487;53.094;8.800;2023-04-24T03:58:14;98781.66;;;11.53;100.00
29549;BME280;16487;53.094;8.800;2023-04-24T04:00:41;98792.81;;;11.53;100.00
29549;BME280;16487;53.094;8.800;2023-04-24T04:03:28;98786.16;;;11.45;100.00
29549;BME280;16487;53.094;8.800;2023-04-24T04:05:56;98802.94;;;11.51;100.00
29549;BME280;16487;53.094;8.800;2023-04-24T04:08:24;98790.75;;;11.48;100.00
29549;BME280;16487;53.094;8.800;2023-04-24T04:10:53;98793.53;;;11.48;100.00
29549;BME280;16487;53.094;8.800;2023-04-24T04:13:20;98800.38;;;11.47;100.00
29549;BME280;16487;53.094;8.800;2023-04-24T04:15:47;98807.47;;;11.48;100.00
29549;BME280;16487;53.094;8.800;2023-04-24T04:18:15;98835.41;;;11.54;100.00
29549;BME280;16487;53.094;8.800;2023-04-24T04:20:42;98847.09;;;11.52;100.00
29549;BME280;16487;53.094;8.800;2023-04-24T04:23:12;98846.53;;;11.48;100.00
29549;BME280;16487;53.094;8.800;2023-04-24T04:25:50;98857.69;;;11.48;100.00
29549;BME280;16487;53.094;8.800;2023-04-24T04:28:20;98863.03;;;11.52;100.00
29549;BME280;16487;53.094;8.800;2023-04-24T04:30:48;98900.34;;;11.54;100.00
29549;BME280;16487;53.094;8.800;2023-04-24T04:33:16;98904.38;;;11.53;100.00
29549;BME280;16487;53.094;8.800;2023-04-24T04:35:43;98921.13;;;11.53;100.00
29549;BME280;16487;53.094;8.800;2023-04-24T04:38:11;98926.47;;;11.57;100.00
29549;BME280;16487;53.094;8.800;2023-04-24T04:40:46;98923.16;;;11.53;100.00
29549;BME280;16487;53.094;8.800;2023-04-24T04:43:15;98932.84;;;11.57;100.00
29549;BME280;16487;53.094;8.800;2023-04-24T04:45:50;98945.50;;;11.58;100.00
29549;BME280;16487;53.094;8.800;2023-04-24T04:48:38;98933.84;;;11.54;100.00
29549;BME280;16487;53.094;8.800;2023-04-24T04:51:07;98939.41;;;11.54;100.00
29549;BME280;16487;53.094;8.800;2023-04-24T04:53:34;98929.50;;;11.53;100.00
29549;BME280;16487;53.094;8.800;2023-04-24T04:56:02;98943.22;;;11.57;100.00
29549;BME280;16487;53.094;8.800;2023-04-24T04:58:36;98936.63;;;11.54;100.00
29549;BME280;16487;53.094;8.800;2023-04-24T05:01:07;98948.59;;;11.61;100.00
29549;BME280;16487;53.094;8.800;2023-04-24T05:03:41;98944.56;;;11.62;100.00
29549;BME280;16487;53.094;8.800;2023-04-24T05:06:12;98950.13;;;11.62;100.00
29549;BME280;16487;53.094;8.800;2023-04-24T05:08:40;98948.31;;;11.58;100.00
29549;BME280;16487;53.094;8.800;2023-04-24T05:11:12;98948.38;;;11.64;100.00
29549;BME280;16487;53.094;8.800;2023-04-24T05:13:40;98959.81;;;11.66;100.00
29549;BME280;16487;53.094;8.800;2023-04-24T05:16:14;98988.34;;;11.76;100.00
29549;BME280;16487;53.094;8.800;2023-04-24T05:18:42;98997.38;;;11.65;100.00
29549;BME280;16487;53.094;8.800;2023-04-24T05:21:13;98996.44;;;11.74;100.00
29549;BME280;16487;53.094;8.800;2023-04-24T05:23:43;99004.75;;;11.68;100.00
29549;BME280;16487;53.094;8.800;2023-04-24T05:26:14;99002.97;;;11.71;100.00
29549;BME280;16487;53.094;8.800;2023-04-24T05:28:41;98981.94;;;11.70;100.00
29549;BME280;16487;53.094;8.800;2023-04-24T05:31:11;98999.81;;;11.83;100.00
29549;BME280;16487;53.094;8.800;2023-04-24T05:33:40;98991.94;;;11.82;100.00
29549;BME280;16487;53.094;8.800;2023-04-24T05:36:07;98988.88;;;11.80;100.00
29549;BME280;16487;53.094;8.800;2023-04-24T05:38:35;98974.13;;;11.74;100.00
29549;BME280;16487;53.094;8.800;2023-04-24T05:41:03;98973.13;;;11.77;100.00
29549;BME280;16487;53.094;8.800;2023-04-24T05:43:30;98969.50;;;11.71;100.00
29549;BME280;16487;53.094;8.800;2023-04-24T05:45:57;98962.13;;;11.68;100.00
29549;BME280;16487;53.094;8.800;2023-04-24T05:48:25;98955.03;;;11.67;100.00
29549;BME280;16487;53.094;8.800;2023-04-24T05:50:54;98947.59;;;11.64;100.00
29549;BME280;16487;53.094;8.800;2023-04-24T05:53:23;98935.22;;;11.65;100.00
29549;BME280;16487;53.094;8.800;2023-04-24T05:55:51;98924.31;;;11.67;100.00
29549;BME280;16487;53.094;8.800;2023-04-24T05:58:19;98923.88;;;11.74;100.00
29549;BME280;16487;53.094;8.800;2023-04-24T06:00:50;98924.91;;;11.76;100.00
29549;BME280;16487;53.094;8.800;2023-04-24T06:03:18;98924.69;;;11.80;100.00
29549;BME280;16487;53.094;8.800;2023-04-24T06:05:49;98939.44;;;11.86;100.00
29549;BME280;16487;53.094;8.800;2023-04-24T06:08:18;98945.47;;;11.79;100.00
29549;BME280;16487;53.094;8.800;2023-04-24T06:10:47;98958.34;;;11.71;100.00
29549;BME280;16487;53.094;8.800;2023-04-24T06:13:16;98952.31;;;11.78;100.00
29549;BME280;16487;53.094;8.800;2023-04-24T06:15:57;98955.47;;;11.91;100.00
29549;BME280;16487;53.094;8.800;2023-04-24T06:18:31;98988.41;;;11.87;100.00
29549;BME280;16487;53.094;8.800;2023-04-24T06:20:58;98998.50;;;11.79;100.00
29549;BME280;16487;53.094;8.800;2023-04-24T06:23:27;99000.25;;;11.76;100.00
29549;BME280;16487;53.094;8.800;2023-04-24T06:25:54;99028.66;;;11.75;100.00
29549;BME280;16487;53.094;8.800;2023-04-24T06:28:22;99037.03;;;11.75;100.00
29549;BME280;16487;53.094;8.800;2023-04-24T06:30:54;99042.28;;;11.93;100.00
29549;BME280;16487;53.094;8.800;2023-04-24T06:33:22;99052.34;;;11.85;100.00
29549;BME280;16487;53.094;8.800;2023-04-24T06:35:50;99057.75;;;11.94;100.00
29549;BME280;16487;53.094;8.800;2023-04-24T06:38:18;99070.63;;;11.86;100.00
29549;BME280;16487;53.094;8.800;2023-04-24T06:40:47;99071.59;;;11.83;100.00
29549;BME280;16487;53.094;8.800;2023-04-24T06:43:14;99078.72;;;11.84;100.00
29549;BME280;16487;53.094;8.800;2023-04-24T06:45:42;99068.22;;;11.73;100.00
29549;BME280;16487;53.094;8.800;2023-04-24T06:48:10;99066.91;;;11.69;100.00
29549;BME280;16487;53.094;8.800;2023-04-24T06:50:37;99065.38;;;11.68;100.00
29549;BME280;16487;53.094;8.800;2023-04-24T06:53:05;99060.41;;;11.57;100.00
29549;BME280;16487;53.094;8.800;2023-04-24T06:55:32;99044.09;;;11.70;100.00
29549;BME280;16487;53.094;8.800;2023-04-24T06:58:01;99043.03;;;11.68;100.00
29549;BME280;16487;53.094;8.800;2023-04-24T07:00:28;99047.22;;;11.57;100.00
29549;BME280;16487;53.094;8.800;2023-04-24T07:02:56;99034.25;;;11.54;100.00
29549;BME280;16487;53.094;8.800;2023-04-24T07:05:24;99016.81;;;11.60;100.00
29549;BME280;16487;53.094;8.800;2023-04-24T07:07:51;99006.97;;;11.64;100.00
29549;BME280;16487;53.094;8.800;2023-04-24T07:10:19;99019.03;;;11.55;100.00
29549;BME280;16487;53.094;8.800;2023-04-24T07:12:46;99017.34;;;11.64;100.00
29549;BME280;16487;53.094;8.800;2023-04-24T07:15:15;98995.66;;;11.73;100.00
29549;BME280;16487;53.094;8.800;2023-04-24T07:17:42;99033.97;;;11.73;100.00
29549;BME280;16487;53.094;8.800;2023-04-24T07:20:10;99032.53;;;11.83;100.00
29549;BME280;16487;53.094;8.800;2023-04-24T07:22:38;99035.72;;;11.96;100.00
29549;BME280;16487;53.094;8.800;2023-04-24T07:25:06;99053.69;;;11.95;100.00
29549;BME280;16487;53.094;8.800;2023-04-24T07:27:34;99071.19;;;12.15;100.00
29549;BME280;16487;53.094;8.800;2023-04-24T07:30:02;99081.31;;;12.44;100.00
29549;BME280;16487;53.094;8.800;2023-04-24T07:32:31;99121.59;;;12.06;100.00
29549;BME280;16487;53.094;8.800;2023-04-24T07:34:59;99130.75;;;12.07;100.00
29549;BME280;16487;53.094;8.800;2023-04-24T07:37:26;99153.47;;;12.20;100.00
29549;BME280;16487;53.094;8.800;2023-04-24T07:39:55;99161.56;;;12.18;100.00
29549;BME280;16487;53.094;8.800;2023-04-24T07:42:22;99164.75;;;12.31;100.00
29549;BME280;16487;53.094;8.800;2023-04-24T07:44:49;99193.50;;;12.37;100.00
29549;BME280;16487;53.094;8.800;2023-04-24T07:47:17;99213.97;;;12.28;100.00
29549;BME280;16487;53.094;8.800;2023-04-24T07:49:46;99256.13;;;12.05;100.00
29549;BME280;16487;53.094;8.800;2023-04-24T07:52:13;99237.19;;;12.14;100.00
29549;BME280;16487;53.094;8.800;2023-04-24T07:54:40;99231.50;;;12.29;100.00
29549;BME280;16487;53.094;8.800;2023-04-24T07:57:08;99241.53;;;12.66;100.00
29549;BME280;16487;53.094;8.800;2023-04-24T07:59:35;99288.94;;;12.55;100.00
29549;BME280;16487;53.094;8.800;2023-04-24T08:02:03;99291.56;;;12.64;100.00
29549;BME280;16487;53.094;8.800;2023-04-24T08:04:30;99307.25;;;12.82;100.00
29549;BME280;16487;53.094;8.800;2023-04-24T08:06:59;99334.00;;;12.63;100.00
29549;BME280;16487;53.094;8.800;2023-04-24T08:09:27;99345.13;;;12.37;100.00
29549;BME280;16487;53.094;8.800;2023-04-24T08:11:54;99330.72;;;12.64;100.00
29549;BME280;16487;53.094;8.800;2023-04-24T08:14:21;99338.34;;;12.44;100.00
29549;BME280;16487;53.094;8.800;2023-04-24T08:16:49;99337.78;;;12.40;100.00
29549;BME280;16487;53.094;8.800;2023-04-24T08:19:16;99329.41;;;12.20;100.00
29549;BME280;16487;53.094;8.800;2023-04-24T08:21:44;99350.78;;;12.03;100.00
29549;BME280;16487;53.094;8.800;2023-04-24T08:24:12;99317.38;;;11.94;100.00
29549;BME280;16487;53.094;8.800;2023-04-24T08:26:40;99318.09;;;11.89;100.00
29549;BME280;16487;53.094;8.800;2023-04-24T08:29:07;99302.16;;;11.95;100.00
29549;BME280;16487;53.094;8.800;2023-04-24T08:31:35;99319.50;;;12.39;100.00
29549;BME280;16487;53.094;8.800;2023-04-24T08:34:02;99350.19;;;12.59;100.00
29549;BME280;16487;53.094;8.800;2023-04-24T08:36:30;99364.03;;;12.68;100.00
29549;BME280;16487;53.094;8.800;2023-04-24T08:39:14;99394.06;;;12.73;100.00
29549;BME280;16487;53.094;8.800;2023-04-24T08:41:43;99403.16;;;12.68;100.00
29549;BME280;16487;53.094;8.800;2023-04-24T08:44:11;99402.88;;;12.86;100.00
29549;BME280;16487;53.094;8.800;2023-04-24T08:46:39;99431.16;;;12.94;100.00
29549;BME280;16487;53.094;8.800;2023-04-24T08:49:07;99450.84;;;12.79;100.00
29549;BME280;16487;53.094;8.800;2023-04-24T08:51:36;99450.25;;;12.75;100.00
29549;BME280;16487;53.094;8.800;2023-04-24T08:54:04;99460.53;;;12.84;100.00
29549;BME280;16487;53.094;8.800;2023-04-24T08:56:33;99513.78;;;12.75;100.00
29549;BME280;16487;53.094;8.800;2023-04-24T08:59:01;99479.50;;;12.74;100.00
29549;BME280;16487;53.094;8.800;2023-04-24T09:01:29;99481.22;;;12.72;100.00
29549;BME280;16487;53.094;8.800;2023-04-24T09:04:00;99484.50;;;12.70;100.00
29549;BME280;16487;53.094;8.800;2023-04-24T09:06:29;99488.00;;;12.85;100.00
29549;BME280;16487;53.094;8.800;2023-04-24T09:08:57;99483.94;;;12.66;100.00
29549;BME280;16487;53.094;8.800;2023-04-24T09:11:27;99493.19;;;12.72;100.00
29549;BME280;16487;53.094;8.800;2023-04-24T09:13:56;99465.38;;;13.03;100.00
29549;BME280;16487;53.094;8.800;2023-04-24T09:16:25;99479.06;;;13.21;100.00
29549;BME280;16487;53.094;8.800;2023-04-24T09:18:53;99514.53;;;12.90;100.00
29549;BME280;16487;53.094;8.800;2023-04-24T09:21:21;99513.38;;;12.82;100.00
29549;BME280;16487;53.094;8.800;2023-04-24T09:23:57;99484.03;;;12.72;100.00
29549;BME280;16487;53.094;8.800;2023-04-24T09:26:25;99447.72;;;12.97;100.00
29549;BME280;16487;53.094;8.800;2023-04-24T09:28:53;99466.03;;;13.38;100.00
29549;BME280;16487;53.094;8.800;2023-04-24T09:31:22;99463.53;;;13.20;100.00
29549;BME280;16487;53.094;8.800;2023-04-24T09:33:54;99468.66;;;13.22;100.00
29549;BME280;16487;53.094;8.800;2023-04-24T09:36:27;99459.88;;;13.09;100.00
29549;BME280;16487;53.094;8.800;2023-04-24T09:38:58;99459.13;;;12.94;100.00
29549;BME280;16487;53.094;8.800;2023-04-24T09:41:26;99453.22;;;12.86;100.00
29549;BME280;16487;53.094;8.800;2023-04-24T09:43:53;99438.25;;;12.69;100.00
29549;BME280;16487;53.094;8.800;2023-04-24T09:46:30;99426.50;;;12.85;100.00
29549;BME280;16487;53.094;8.800;2023-04-24T09:49:07;99444.47;;;12.58;100.00
29549;BME280;16487;53.094;8.800;2023-04-24T09:51:36;99442.84;;;12.52;100.00
29549;BME280;16487;53.094;8.800;2023-04-24T09:54:13;99447.84;;;12.28;100.00
29549;BME280;16487;53.094;8.800;2023-04-24T09:56:42;99437.03;;;12.35;100.00
29549;BME280;16487;53.094;8.800;2023-04-24T09:59:10;99422.16;;;12.44;100.00
29549;BME280;16487;53.094;8.800;2023-04-24T10:01:39;99439.75;;;12.30;100.00
29549;BME280;16487;53.094;8.800;2023-04-24T10:04:06;99433.25;;;12.18;100.00
29549;BME280;16487;53.094;8.800;2023-04-24T10:06:35;99426.28;;;12.28;100.00
29549;BME280;16487;53.094;8.800;2023-04-24T10:09:03;99424.38;;;12.20;100.00
29549;BME280;16487;53.094;8.800;2023-04-24T10:11:30;99410.69;;;12.22;100.00
29549;BME280;16487;53.094;8.800;2023-04-24T10:13:58;99400.44;;;12.33;100.00
29549;BME280;16487;53.094;8.800;2023-04-24T10:16:26;99415.47;;;12.36;100.00
29549;BME280;16487;53.094;8.800;2023-04-24T10:18:55;99418.09;;;12.25;100.00
29549;BME280;16487;53.094;8.800;2023-04-24T10:21:26;99423.75;;;12.10;100.00
29549;BME280;16487;53.094;8.800;2023-04-24T10:23:54;99418.28;;;12.01;100.00
29549;BME280;16487;53.094;8.800;2023-04-24T10:26:22;99384.97;;;11.98;100.00
29549;BME280;16487;53.094;8.800;2023-04-24T10:28:49;99384.97;;;11.98;100.00
29549;BME280;16487;53.094;8.800;2023-04-24T10:31:17;99381.50;;;12.03;100.00
29549;BME280;16487;53.094;8.800;2023-04-24T10:33:45;99363.84;;;12.11;100.00
29549;BME280;16487;53.094;8.800;2023-04-24T10:36:15;99382.47;;;12.00;100.00
29549;BME280;16487;53.094;8.800;2023-04-24T10:38:45;99366.25;;;12.04;100.00
29549;BME280;16487;53.094;8.800;2023-04-24T10:41:13;99360.78;;;11.95;100.00
29549;BME280;16487;53.094;8.800;2023-04-24T10:43:41;99345.69;;;12.01;100.00
29549;BME280;16487;53.094;8.800;2023-04-24T10:46:08;99346.88;;;12.15;100.00
29549;BME280;16487;53.094;8.800;2023-04-24T10:48:42;99347.41;;;11.99;100.00
29549;BME280;16487;53.094;8.800;2023-04-24T10:51:11;99344.47;;;11.88;100.00
29549;BME280;16487;53.094;8.800;2023-04-24T10:53:40;99336.16;;;11.93;100.00
29549;BME280;16487;53.094;8.800;2023-04-24T10:56:08;99307.75;;;11.95;100.00
29549;BME280;16487;53.094;8.800;2023-04-24T10:58:38;99307.75;;;12.35;100.00
29549;BME280;16487;53.094;8.800;2023-04-24T11:01:06;99326.75;;;12.51;100.00
29549;BME280;16487;53.094;8.800;2023-04-24T11:03:35;99356.22;;;12.52;100.00
29549;BME280;16487;53.094;8.800;2023-04-24T11:06:05;99374.22;;;12.71;100.00
29549;BME280;16487;53.094;8.800;2023-04-24T11:08:38;99408.91;;;12.79;100.00
29549;BME280;16487;53.094;8.800;2023-04-24T11:11:12;99412.69;;;12.76;100.00
29549;BME280;16487;53.094;8.800;2023-04-24T11:14:04;99428.53;;;12.44;100.00
29549;BME280;16487;53.094;8.800;2023-04-24T11:16:33;99431.25;;;12.59;100.00
29549;BME280;16487;53.094;8.800;2023-04-24T11:19:04;99431.25;;;12.79;100.00
29549;BME280;16487;53.094;8.800;2023-04-24T11:21:39;99452.91;;;12.64;100.00
29549;BME280;16487;53.094;8.800;2023-04-24T11:24:26;99440.69;;;12.41;100.00
29549;BME280;16487;53.094;8.800;2023-04-24T11:26:57;99408.94;;;12.24;100.00
29549;BME280;16487;53.094;8.800;2023-04-24T11:29:39;99390.50;;;12.12;100.00
29549;BME280;16487;53.094;8.800;2023-04-24T11:32:17;99335.94;;;11.97;100.00
29549;BME280;16487;53.094;8.800;2023-04-24T11:34:47;99293.25;;;11.91;100.00
29549;BME280;16487;53.094;8.800;2023-04-24T11:37:17;99226.25;;;11.91;100.00
29549;BME280;16487;53.094;8.800;2023-04-24T11:39:44;99221.19;;;11.54;100.00
29549;BME280;16487;53.094;8.800;2023-04-24T11:42:15;99160.75;;;11.31;100.00
29549;BME280;16487;53.094;8.800;2023-04-24T11:44:43;99107.31;;;10.98;100.00
29549;BME280;16487;53.094;8.800;2023-04-24T11:47:10;99054.06;;;10.76;100.00
29549;BME280;16487;53.094;8.800;2023-04-24T11:49:38;99002.25;;;10.64;100.00
29549;BME280;16487;53.094;8.800;2023-04-24T11:52:05;98953.63;;;10.65;100.00
29549;BME280;16487;53.094;8.800;2023-04-24T11:54:33;98943.16;;;10.60;100.00
29549;BME280;16487;53.094;8.800;2023-04-24T11:57:04;98918.22;;;10.51;100.00
29549;BME280;16487;53.094;8.800;2023-04-24T11:59:36;98891.66;;;10.30;100.00
29549;BME280;16487;53.094;8.800;2023-04-24T12:02:04;98838.34;;;10.37;100.00
29549;BME280;16487;53.094;8.800;2023-04-24T12:04:38;98803.78;;;10.49;100.00
29549;BME280;16487;53.094;8.800;2023-04-24T12:07:07;98768.13;;;10.53;100.00
29549;BME280;16487;53.094;8.800;2023-04-24T12:09:41;98735.53;;;10.59;100.00
29549;BME280;16487;53.094;8.800;2023-04-24T12:12:09;98731.19;;;10.58;100.00
29549;BME280;16487;53.094;8.800;2023-04-24T12:14:46;98713.50;;;10.35;100.00
29549;BME280;16487;53.094;8.800;2023-04-24T12:17:14;98699.66;;;10.41;100.00
29549;BME280;16487;53.094;8.800;2023-04-24T12:19:46;98694.16;;;10.21;100.00
29549;BME280;16487;53.094;8.800;2023-04-24T12:22:14;98675.09;;;10.14;100.00
29549;BME280;16487;53.094;8.800;2023-04-24T12:24:58;98669.38;;;10.03;100.00
29549;BME280;16487;53.094;8.800;2023-04-24T12:27:27;98646.91;;;10.06;100.00
29549;BME280;16487;53.094;8.800;2023-04-24T12:29:57;98644.19;;;10.12;100.00
29549;BME280;16487;53.094;8.800;2023-04-24T12:32:26;98643.22;;;10.15;100.00
29549;BME280;16487;53.094;8.800;2023-04-24T12:34:55;98648.91;;;10.26;100.00
29549;BME280;16487;53.094;8.800;2023-04-24T12:37:23;98658.53;;;10.30;100.00
29549;BME280;16487;53.094;8.800;2023-04-24T12:40:01;98651.97;;;10.28;100.00
29549;BME280;16487;53.094;8.800;2023-04-24T12:42:30;98662.19;;;10.16;100.00
29549;BME280;16487;53.094;8.800;2023-04-24T12:45:02;98662.25;;;10.22;100.00
29549;BME280;16487;53.094;8.800;2023-04-24T12:47:30;98671.94;;;10.26;100.00
29549;BME280;16487;53.094;8.800;2023-04-24T12:49:58;98677.59;;;10.37;100.00
29549;BME280;16487;53.094;8.800;2023-04-24T12:52:28;98697.94;;;10.23;100.00
29549;BME280;16487;53.094;8.800;2023-04-24T12:54:58;98714.44;;;10.27;100.00
29549;BME280;16487;53.094;8.800;2023-04-24T12:57:27;98734.63;;;10.22;100.00
29549;BME280;16487;53.094;8.800;2023-04-24T12:59:56;98731.31;;;10.18;100.00